Time;durP1;ratioP1;P1;durP2;ratioP2;P2;SDS_P1;SDS_P2;PMS_P1;PMS_P2;Temp;Humidity;BMP_temperature;BMP_pressure;BME280_temperature;BME280_humidity;BME280_pressure;Samples;Min_cycle;Max_cycle;Signal;HPM_P1;HPM_P2
2021/12/14 00:00:27;;;;;;;;;;;;;;;18.06;48.96;102544.78;5084954;28;19912;-48
2021/12/14 00:02:52;;;;;;;;;;;;;;;18.06;48.93;102539.41;5085876;28;19917;-48
2021/12/14 00:05:19;;;;;;;;;;;;;;;18.05;48.93;102553.81;5086128;28;19953;-49
2021/12/14 00:07:44;;;;;;;;;;;;;;;18.05;48.89;102537.66;5085830;28;19912;-47
2021/12/14 00:10:30;;;;;;;;;;;;;;;18.05;49.00;102532.28;5084874;28;20035;-50
2021/12/14 00:13:02;;;;;;;;;;;;;;;18.03;48.97;102545.88;5085018;28;19956;-48
2021/12/14 00:15:28;;;;;;;;;;;;;;;18.03;48.97;102545.00;5091752;28;19916;-49
2021/12/14 00:17:55;;;;;;;;;;;;;;;18.03;49.04;102536.94;5084928;28;19938;-48
2021/12/14 00:20:30;;;;;;;;;;;;;;;18.02;49.03;102541.47;5085251;28;20000;-53
2021/12/14 00:25:26;;;;;;;;;;;;;;;18.02;48.95;102544.16;5085576;28;19972;-48
2021/12/14 00:27:51;;;;;;;;;;;;;;;18.01;48.99;102547.84;5085580;28;20296;-47
2021/12/14 00:30:16;;;;;;;;;;;;;;;18.00;48.82;102554.19;5084372;28;19952;-46
2021/12/14 00:32:42;;;;;;;;;;;;;;;17.99;48.91;102563.25;5085297;28;19917;-49
2021/12/14 00:35:12;;;;;;;;;;;;;;;18.00;48.80;102564.94;5085494;28;19916;-45
2021/12/14 00:37:38;;;;;;;;;;;;;;;17.98;48.91;102559.69;5085430;28;19913;-47
2021/12/14 00:40:07;;;;;;;;;;;;;;;17.98;49.01;102559.69;5084896;28;19923;-47
2021/12/14 00:42:33;;;;;;;;;;;;;;;17.98;48.93;102561.53;5085229;28;19905;-45
2021/12/14 00:44:58;;;;;;;;;;;;;;;17.97;48.95;102559.84;5084923;28;19980;-50
2021/12/14 00:47:23;;;;;;;;;;;;;;;17.96;48.88;102566.16;5084527;28;19927;-49
2021/12/14 00:49:48;;;;;;;;;;;;;;;17.96;48.71;102558.94;5085038;28;19913;-49
2021/12/14 00:52:14;;;;;;;;;;;;;;;17.95;48.99;102565.31;5084644;28;19994;-47
2021/12/14 00:54:39;;;;;;;;;;;;;;;17.95;48.80;102576.06;5084371;28;19924;-46
2021/12/14 00:57:05;;;;;;;;;;;;;;;17.94;48.95;102560.06;5084401;28;19930;-47
2021/12/14 00:59:31;;;;;;;;;;;;;;;17.93;48.97;102567.28;5084341;28;19940;-46
2021/12/14 01:02:00;;;;;;;;;;;;;;;17.92;48.80;102557.47;5083914;28;19920;-46
2021/12/14 01:04:28;;;;;;;;;;;;;;;17.92;48.83;102554.78;5084658;28;19912;-45
2021/12/14 01:06:54;;;;;;;;;;;;;;;17.92;48.91;102559.31;5084635;28;19923;-46
2021/12/14 01:09:21;;;;;;;;;;;;;;;17.91;48.99;102557.59;5084754;28;19972;-47
2021/12/14 01:11:47;;;;;;;;;;;;;;;17.90;48.77;102553.22;5084084;28;19920;-50
2021/12/14 01:14:28;;;;;;;;;;;;;;;17.89;48.98;102551.50;5084670;28;19924;-46
2021/12/14 01:17:09;;;;;;;;;;;;;;;17.88;48.74;102552.47;5084126;28;19916;-47
2021/12/14 01:19:36;;;;;;;;;;;;;;;17.86;48.87;102549.06;5084493;28;19912;-47
2021/12/14 01:25:19;;;;;;;;;;;;;;;17.85;48.75;102544.66;5084160;28;19916;-48
2021/12/14 01:27:21;;;;;;;;;;;;;;;17.84;48.85;102533.03;5069898;28;19969;-46
2021/12/14 01:29:48;;;;;;;;;;;;;;;17.85;48.93;102523.13;5083911;28;19917;-45
2021/12/14 01:32:14;;;;;;;;;;;;;;;17.84;49.02;102522.28;5083964;28;19924;-46
2021/12/14 01:34:39;;;;;;;;;;;;;;;17.84;48.96;102524.09;5084195;28;19916;-48
2021/12/14 01:37:08;;;;;;;;;;;;;;;17.83;48.75;102517.84;5083981;28;19912;-46
2021/12/14 01:39:48;;;;;;;;;;;;;;;17.81;48.97;102521.66;5083905;28;19963;-45
2021/12/14 01:42:16;;;;;;;;;;;;;;;17.81;49.03;102525.22;5083839;28;19951;-47
2021/12/14 01:44:46;;;;;;;;;;;;;;;17.80;48.86;102520.81;5084100;28;19913;-48
2021/12/14 01:47:13;;;;;;;;;;;;;;;17.80;48.85;102519.94;5083360;28;20389;-46
2021/12/14 01:49:39;;;;;;;;;;;;;;;17.80;49.01;102528.88;5083921;28;19961;-50
2021/12/14 01:52:06;;;;;;;;;;;;;;;17.80;48.85;102510.06;5084111;28;19951;-46
2021/12/14 01:54:33;;;;;;;;;;;;;;;17.80;48.72;102514.53;5066852;28;19920;-48
2021/12/14 01:57:00;;;;;;;;;;;;;;;17.78;48.79;102506.59;5083843;28;19912;-46
2021/12/14 01:59:34;;;;;;;;;;;;;;;17.78;48.99;102528.13;5083511;28;19920;-45
2021/12/14 02:04:54;;;;;;;;;;;;;;;17.78;48.91;102528.13;5067199;28;19916;-46
2021/12/14 02:07:19;;;;;;;;;;;;;;;17.77;48.84;102518.34;5087953;28;19990;-47
2021/12/14 02:09:46;;;;;;;;;;;;;;;17.77;48.91;102518.34;5087972;28;19919;-47
2021/12/14 02:12:17;;;;;;;;;;;;;;;17.77;48.87;102509.44;5087779;28;20015;-48
2021/12/14 02:14:42;;;;;;;;;;;;;;;17.76;48.75;102529.25;5087947;28;19939;-47
2021/12/14 02:17:09;;;;;;;;;;;;;;;17.76;48.88;102524.72;5087291;28;19913;-47
2021/12/14 02:19:34;;;;;;;;;;;;;;;17.76;48.69;102529.25;5087855;28;19912;-46
2021/12/14 02:21:59;;;;;;;;;;;;;;;17.74;48.80;102540.97;5087847;28;20020;-49
2021/12/14 02:24:25;;;;;;;;;;;;;;;17.72;48.95;102532.16;5087732;28;19939;-47
2021/12/14 02:26:51;;;;;;;;;;;;;;;17.71;48.78;102530.44;5087501;28;20373;-50
2021/12/14 02:29:22;;;;;;;;;;;;;;;17.71;48.91;102529.56;5087518;28;19961;-46
2021/12/14 02:31:47;;;;;;;;;;;;;;;17.71;48.76;102537.63;5077377;28;19912;-46
2021/12/14 02:34:12;;;;;;;;;;;;;;;17.70;48.70;102522.47;5081014;28;20380;-50
2021/12/14 02:36:39;;;;;;;;;;;;;;;17.69;48.95;102510.00;5087541;28;19913;-48
2021/12/14 02:39:10;;;;;;;;;;;;;;;17.69;48.82;102512.69;5087126;28;21036;-45
2021/12/14 02:41:43;;;;;;;;;;;;;;;17.68;48.78;102511.00;5087021;28;19917;-47
2021/12/14 02:44:09;;;;;;;;;;;;;;;17.68;48.85;102511.84;5087425;28;19913;-45
2021/12/14 02:46:35;;;;;;;;;;;;;;;17.68;48.89;102511.00;5086717;28;19999;-49
2021/12/14 02:49:02;;;;;;;;;;;;;;;17.67;48.90;102510.13;5087287;28;19976;-46
2021/12/14 02:51:32;;;;;;;;;;;;;;;17.67;48.57;102509.25;5087460;28;20364;-47
2021/12/14 02:54:00;;;;;;;;;;;;;;;17.66;48.73;102503.03;5087177;28;19923;-47
2021/12/14 02:56:28;;;;;;;;;;;;;;;17.66;48.85;102502.16;5086878;28;19912;-46
2021/12/14 02:58:58;;;;;;;;;;;;;;;17.66;48.80;102507.53;5086829;28;19916;-47
2021/12/14 03:01:23;;;;;;;;;;;;;;;17.65;48.73;102501.31;5086448;28;19917;-45
2021/12/14 03:03:48;;;;;;;;;;;;;;;17.66;48.79;102496.78;5087058;28;19912;-46
2021/12/14 03:06:19;;;;;;;;;;;;;;;17.65;48.94;102497.78;5087142;28;19913;-45
2021/12/14 03:08:56;;;;;;;;;;;;;;;17.64;48.86;102501.44;5087008;28;19927;-49
2021/12/14 03:11:21;;;;;;;;;;;;;;;17.65;48.85;102497.78;5086419;28;19921;-45
2021/12/14 03:13:47;;;;;;;;;;;;;;;17.64;48.78;102493.38;5086843;28;19922;-46
2021/12/14 03:16:17;;;;;;;;;;;;;;;17.63;48.57;102492.53;5085791;28;19920;-48
2021/12/14 03:18:43;;;;;;;;;;;;;;;17.62;48.77;102498.84;5086761;28;19919;-45
2021/12/14 03:21:10;;;;;;;;;;;;;;;17.61;48.74;102483.72;5087031;28;19912;-48
2021/12/14 03:23:37;;;;;;;;;;;;;;;17.61;48.67;102477.47;5086422;28;19923;-51
2021/12/14 03:26:03;;;;;;;;;;;;;;;17.60;48.75;102490.06;5086428;28;19919;-48
2021/12/14 03:28:29;;;;;;;;;;;;;;;17.60;48.71;102482.00;5086431;28;20011;-46
2021/12/14 03:30:54;;;;;;;;;;;;;;;17.59;48.63;102495.59;5085359;28;19939;-48
2021/12/14 03:33:22;;;;;;;;;;;;;;;17.59;48.63;102511.72;5086320;28;19917;-49
2021/12/14 03:35:51;;;;;;;;;;;;;;;17.58;48.72;102518.91;5086496;28;19913;-45
2021/12/14 03:38:27;;;;;;;;;;;;;;;17.59;48.76;102533.25;5086512;28;19920;-48
2021/12/14 03:40:54;;;;;;;;;;;;;;;17.57;48.76;102541.41;5085830;28;20308;-49
2021/12/14 03:43:20;;;;;;;;;;;;;;;17.57;48.83;102537.88;5068333;28;20316;-46
2021/12/14 03:45:45;;;;;;;;;;;;;;;17.57;48.59;102536.03;5085627;28;19912;-47
2021/12/14 03:48:10;;;;;;;;;;;;;;;17.56;48.79;102536.16;5086312;28;19917;-52
2021/12/14 03:50:40;;;;;;;;;;;;;;;17.55;48.80;102538.00;5086084;28;19920;-46
2021/12/14 03:53:05;;;;;;;;;;;;;;;17.55;48.65;102527.25;5085905;28;20033;-47
2021/12/14 03:55:32;;;;;;;;;;;;;;;17.56;48.73;102533.47;5085732;28;19924;-47
2021/12/14 03:57:57;;;;;;;;;;;;;;;17.54;48.60;102528.19;5086373;28;19912;-48
2021/12/14 04:00:31;;;;;;;;;;;;;;;17.54;48.71;102530.03;5084882;28;19959;-47
2021/12/14 04:02:57;;;;;;;;;;;;;;;17.53;48.79;102509.50;5086258;28;19916;-48
2021/12/14 04:05:23;;;;;;;;;;;;;;;17.52;48.80;102500.56;5085939;28;19919;-46
2021/12/14 04:07:48;;;;;;;;;;;;;;;17.50;48.77;102486.41;5068078;28;19913;-47
2021/12/14 04:10:14;;;;;;;;;;;;;;;17.51;48.69;102498.03;5085015;28;19927;-48
2021/12/14 04:12:40;;;;;;;;;;;;;;;17.50;48.73;102510.63;5085892;28;19908;-44
2021/12/14 04:15:05;;;;;;;;;;;;;;;17.49;48.54;102516.94;5085544;28;20346;-47
2021/12/14 04:17:30;;;;;;;;;;;;;;;17.49;48.75;102517.78;5085068;28;19916;-47
2021/12/14 04:19:56;;;;;;;;;;;;;;;17.48;48.58;102521.47;5067586;28;19912;-46
2021/12/14 04:22:23;;;;;;;;;;;;;;;17.48;48.59;102520.63;5085479;28;19947;-47
2021/12/14 04:24:54;;;;;;;;;;;;;;;17.49;48.69;102519.63;5085454;28;19917;-45
2021/12/14 04:27:21;;;;;;;;;;;;;;;17.48;48.75;102517.94;5084731;28;19912;-48
2021/12/14 04:29:47;;;;;;;;;;;;;;;17.48;48.62;102517.94;5084594;28;19922;-47
2021/12/14 04:32:13;;;;;;;;;;;;;;;17.47;48.70;102509.00;5084925;28;20266;-46
2021/12/14 04:34:38;;;;;;;;;;;;;;;17.46;48.59;102518.06;5067305;28;19916;-44
2021/12/14 04:37:04;;;;;;;;;;;;;;;17.47;48.52;102518.91;5085320;28;19917;-48
2021/12/14 04:39:38;;;;;;;;;;;;;;;17.45;48.58;102507.41;5083997;28;20371;-48
2021/12/14 04:53:21;;;;;;;;;;;;;;;17.43;48.71;102495.94;5084468;28;20548;-47
2021/12/14 04:55:47;;;;;;;;;;;;;;;17.42;48.70;102488.84;5084476;28;20487;-47
2021/12/14 04:58:13;;;;;;;;;;;;;;;17.42;48.59;102487.00;5084800;28;19919;-45
2021/12/14 05:00:39;;;;;;;;;;;;;;;17.42;48.75;102483.47;5084104;28;19916;-45
2021/12/14 05:03:11;;;;;;;;;;;;;;;17.42;48.73;102480.78;5084873;28;20423;-50
2021/12/14 05:05:44;;;;;;;;;;;;;;;17.41;48.73;102479.03;5084826;28;19934;-47
2021/12/14 05:10:38;;;;;;;;;;;;;;;17.39;48.67;102475.63;5084061;28;19924;-49
2021/12/14 05:13:03;;;;;;;;;;;;;;;17.39;48.67;102476.47;5084698;28;19924;-45
2021/12/14 05:15:30;;;;;;;;;;;;;;;17.39;48.71;102483.69;5083337;28;21491;-48
2021/12/14 05:17:55;;;;;;;;;;;;;;;17.39;48.54;102473.78;5084303;28;19972;-45
2021/12/14 05:20:21;;;;;;;;;;;;;;;17.39;48.52;102476.47;5073556;28;19917;-46
2021/12/14 05:22:46;;;;;;;;;;;;;;;17.41;48.61;102481.72;5071584;28;19917;-45
2021/12/14 05:25:18;;;;;;;;;;;;;;;17.39;48.72;102487.25;5064241;28;19939;-47
2021/12/14 05:27:45;;;;;;;;;;;;;;;17.41;48.70;102484.41;5067210;28;19927;-48
2021/12/14 05:30:12;;;;;;;;;;;;;;;17.40;48.66;102486.25;5083232;28;19948;-44
2021/12/14 05:32:38;;;;;;;;;;;;;;;17.40;48.49;102483.56;5083972;28;19959;-45
2021/12/14 05:35:03;;;;;;;;;;;;;;;17.41;48.76;102484.41;5077952;28;19932;-47
2021/12/14 05:37:33;;;;;;;;;;;;;;;17.39;48.52;102491.75;5062846;28;19920;-49
2021/12/14 05:40:03;;;;;;;;;;;;;;;17.39;48.74;102494.44;5084087;28;19912;-48
2021/12/14 05:45:18;;;;;;;;;;;;;;;17.39;48.69;102498.00;5074666;28;19984;-45
2021/12/14 05:47:45;;;;;;;;;;;;;;;17.39;48.72;102489.94;5063750;28;19912;-48
2021/12/14 05:50:19;;;;;;;;;;;;;;;17.40;48.70;102498.84;5063750;28;19920;-48
2021/12/14 05:52:44;;;;;;;;;;;;;;;17.41;48.73;102508.63;5067172;28;19960;-50
2021/12/14 05:55:10;;;;;;;;;;;;;;;17.41;48.95;102508.63;5078520;28;19927;-50
2021/12/14 05:57:36;;;;;;;;;;;;;;;17.40;48.82;102510.44;5077259;28;19912;-48
2021/12/14 06:00:01;;;;;;;;;;;;;;;17.42;48.85;102518.41;5060025;28;19913;-48
2021/12/14 06:02:26;;;;;;;;;;;;;;;17.41;48.89;102505.94;5075960;28;19912;-46
2021/12/14 06:04:52;;;;;;;;;;;;;;;17.41;48.97;102509.47;5065957;28;20071;-47
2021/12/14 06:07:17;;;;;;;;;;;;;;;17.41;48.95;102511.31;5082287;28;20467;-45
2021/12/14 06:09:44;;;;;;;;;;;;;;;17.41;49.02;102514.00;5081463;28;19916;-45
2021/12/14 06:12:12;;;;;;;;;;;;;;;17.42;49.13;102521.09;5077020;28;19921;-49
2021/12/14 06:14:42;;;;;;;;;;;;;;;17.41;48.97;102525.59;5074812;28;19920;-47
2021/12/14 06:17:08;;;;;;;;;;;;;;;17.42;49.23;102532.72;5077359;28;19916;-48
2021/12/14 06:19:38;;;;;;;;;;;;;;;17.42;49.14;102527.34;5080012;28;19973;-49
2021/12/14 06:22:11;;;;;;;;;;;;;;;17.43;49.19;102528.19;5082751;28;20424;-48
2021/12/14 06:24:38;;;;;;;;;;;;;;;17.42;49.09;102530.03;5083853;28;19917;-47
2021/12/14 06:27:04;;;;;;;;;;;;;;;17.42;49.23;102527.34;5082991;28;19923;-48
2021/12/14 06:29:36;;;;;;;;;;;;;;;17.43;49.12;102530.88;5082085;28;19956;-47
2021/12/14 06:32:09;;;;;;;;;;;;;;;17.43;49.08;102530.88;5081039;28;19923;-52
2021/12/14 06:34:37;;;;;;;;;;;;;;;17.42;49.12;102527.34;5083429;28;19916;-47
2021/12/14 06:37:42;;;;;;;;;;;;;;;17.43;49.19;102530.88;5082192;28;19933;-48
2021/12/14 06:40:16;;;;;;;;;;;;;;;17.44;49.31;102537.97;5064523;28;19912;-49
2021/12/14 06:42:50;;;;;;;;;;;;;;;17.43;49.18;102547.88;5083183;28;19972;-45
2021/12/14 06:45:19;;;;;;;;;;;;;;;17.42;49.34;102548.84;5072579;28;19992;-45
2021/12/14 06:47:46;;;;;;;;;;;;;;;17.43;49.35;102547.88;5082222;28;19973;-45
2021/12/14 06:50:12;;;;;;;;;;;;;;;17.42;49.26;102559.59;5081024;28;19912;-51
2021/12/14 06:52:38;;;;;;;;;;;;;;;17.41;49.37;102565.94;5084673;28;19994;-45
2021/12/14 06:55:03;;;;;;;;;;;;;;;17.42;49.47;102562.28;5078390;28;20618;-49
2021/12/14 06:57:29;;;;;;;;;;;;;;;17.42;49.43;102562.28;5044740;28;20007;-46
2021/12/14 06:59:55;;;;;;;;;;;;;;;17.42;49.65;102564.13;5083033;28;19921;-47
2021/12/14 07:02:21;;;;;;;;;;;;;;;17.44;49.44;102572.91;5083113;28;19919;-45
2021/12/14 07:04:49;;;;;;;;;;;;;;;17.45;49.56;102574.63;5083331;28;19956;-47
2021/12/14 07:07:14;;;;;;;;;;;;;;;17.45;49.45;102569.25;5083304;28;19920;-45
2021/12/14 07:09:44;;;;;;;;;;;;;;;17.45;49.72;102572.78;5079168;28;19938;-46
2021/12/14 07:12:11;;;;;;;;;;;;;;;17.46;49.60;102569.16;5079187;28;19932;-49
2021/12/14 07:14:39;;;;;;;;;;;;;;;17.46;49.74;102574.53;5083816;28;19920;-47
2021/12/14 07:17:13;;;;;;;;;;;;;;;17.48;49.69;102575.25;5081006;28;19966;-47
2021/12/14 07:19:43;;;;;;;;;;;;;;;17.48;49.70;102577.94;5082387;28;19919;-48
2021/12/14 07:22:12;;;;;;;;;;;;;;;17.49;49.55;102578.78;5083127;28;19912;-47
2021/12/14 07:24:37;;;;;;;;;;;;;;;17.52;49.72;102575.88;5080157;28;19912;-47
2021/12/14 07:27:32;;;;;;;;;;;;;;;17.54;49.73;102581.97;5083097;28;19909;-47
2021/12/14 07:30:11;;;;;;;;;;;;;;;17.57;49.54;102580.91;5020107;28;19910;-47
2021/12/14 07:32:39;;;;;;;;;;;;;;;17.60;49.68;102581.53;5016949;28;20586;-47
2021/12/14 07:35:24;;;;;;;;;;;;;;;17.63;49.50;102583.97;5836691;22;19939;-48
2021/12/14 07:37:50;;;;;;;;;;;;;;;17.65;49.28;102576.63;5062577;28;20008;-42
2021/12/14 07:43:05;;;;;;;;;;;;;;;17.69;49.24;102571.88;5227870;22;20296;-44
2021/12/14 07:45:30;;;;;;;;;;;;;;;17.69;49.24;102575.41;5040011;28;19917;-43
2021/12/14 07:47:55;;;;;;;;;;;;;;;17.72;49.27;102572.50;5034158;28;19964;-46
2021/12/14 07:50:31;;;;;;;;;;;;;;;17.72;49.27;102580.56;5034059;28;19914;-41
2021/12/14 07:52:56;;;;;;;;;;;;;;;17.74;49.23;102581.31;5028609;28;19921;-45
2021/12/14 07:57:57;;;;;;;;;;;;;;;17.77;49.20;102598.22;5283900;22;20738;-45
2021/12/14 08:00:23;;;;;;;;;;;;;;;17.79;49.27;102598.94;5059552;28;19959;-43
2021/12/14 08:02:50;;;;;;;;;;;;;;;17.77;49.01;102595.53;5055656;28;20610;-46
2021/12/14 08:05:17;;;;;;;;;;;;;;;17.78;48.97;102595.38;5057471;28;19919;-48
2021/12/14 08:07:44;;;;;;;;;;;;;;;17.79;49.02;102597.09;5046445;28;19928;-43
2021/12/14 08:10:29;;;;;;;;;;;;;;;17.80;49.08;102592.56;5065002;28;20002;-43
2021/12/14 08:15:29;;;;;;;;;;;;;;;17.83;49.09;102600.41;5028184;28;19948;-43
2021/12/14 08:18:03;;;;;;;;;;;;;;;17.83;48.97;102609.34;5033868;28;19946;-41
2021/12/14 08:20:28;;;;;;;;;;;;;;;17.84;49.07;102605.69;5033747;28;19917;-39
2021/12/14 08:22:55;;;;;;;;;;;;;;;17.86;48.73;102610.94;5040172;28;20187;-41
2021/12/14 08:25:27;;;;;;;;;;;;;;;17.86;48.88;102611.78;5039415;28;19921;-41
2021/12/14 08:27:56;;;;;;;;;;;;;;;17.87;48.88;102612.66;5030319;28;19920;-40
2021/12/14 08:30:21;;;;;;;;;;;;;;;17.88;48.80;102619.72;5041376;28;19923;-40
2021/12/14 08:32:48;;;;;;;;;;;;;;;17.89;48.62;102616.09;5042187;28;19921;-45
2021/12/14 08:35:14;;;;;;;;;;;;;;;17.90;48.77;102610.56;5039344;28;19921;-44
2021/12/14 08:37:44;;;;;;;;;;;;;;;17.93;48.64;102610.34;5042129;28;19917;-45
2021/12/14 08:40:12;;;;;;;;;;;;;;;17.97;48.53;102616.34;5032883;28;19936;-41
2021/12/14 08:43:02;;;;;;;;;;;;;;;17.99;48.58;102614.38;5028132;28;19920;-39
2021/12/14 08:45:33;;;;;;;;;;;;;;;18.03;48.55;102618.53;5054144;28;19988;-40
2021/12/14 08:48:01;;;;;;;;;;;;;;;18.07;48.49;102613.78;5041281;28;19967;-43
2021/12/14 08:50:27;;;;;;;;;;;;;;;18.10;48.30;102610.84;5036887;28;19917;-44
2021/12/14 08:52:52;;;;;;;;;;;;;;;18.11;48.38;102621.47;5028945;28;19991;-39
2021/12/14 08:55:18;;;;;;;;;;;;;;;18.14;48.22;102620.41;5031762;28;19914;-43
2021/12/14 08:57:43;;;;;;;;;;;;;;;18.14;48.11;102617.69;5038249;28;19913;-42
2021/12/14 09:00:13;;;;;;;;;;;;;;;18.14;48.29;102618.56;5041137;28;19917;-42
2021/12/14 09:02:39;;;;;;;;;;;;;;;18.15;48.14;102620.25;5036578;28;19913;-44
2021/12/14 09:05:10;;;;;;;;;;;;;;;18.15;48.18;102620.25;5038360;28;20579;-41
2021/12/14 09:07:36;;;;;;;;;;;;;;;18.15;48.00;102631.03;5040321;28;19940;-42
2021/12/14 09:10:04;;;;;;;;;;;;;;;18.15;48.27;102632.88;5050179;28;19917;-40
2021/12/14 09:12:34;;;;;;;;;;;;;;;18.15;48.21;102631.03;5052722;28;19985;-44
2021/12/14 09:15:03;;;;;;;;;;;;;;;18.16;48.41;102637.28;5038542;28;19932;-40
2021/12/14 09:17:29;;;;;;;;;;;;;;;18.17;48.43;102628.22;5036500;28;19956;-40
2021/12/14 09:19:57;;;;;;;;;;;;;;;18.17;48.46;102633.59;5040434;28;19967;-43
2021/12/14 09:22:30;;;;;;;;;;;;;;;18.17;48.40;102626.38;5033662;28;19979;-45
2021/12/14 09:24:55;;;;;;;;;;;;;;;18.18;48.55;102632.59;5039465;28;19984;-41
2021/12/14 09:27:22;;;;;;;;;;;;;;;18.19;48.59;102631.66;5038696;28;19921;-41
2021/12/14 09:29:48;;;;;;;;;;;;;;;18.19;48.44;102624.44;5054060;28;19948;-41
2021/12/14 09:32:17;;;;;;;;;;;;;;;18.20;48.67;102628.81;5036807;28;19974;-40
2021/12/14 09:34:42;;;;;;;;;;;;;;;18.21;48.52;102625.16;5038731;28;19917;-59
2021/12/14 09:37:10;;;;;;;;;;;;;;;18.24;48.36;102624.91;5037468;28;19949;-39
2021/12/14 09:39:36;;;;;;;;;;;;;;;18.24;48.49;102624.06;5038773;28;19924;-42
2021/12/14 09:42:03;;;;;;;;;;;;;;;18.25;48.38;102625.75;5038410;28;20370;-40
2021/12/14 09:44:30;;;;;;;;;;;;;;;18.26;48.29;102618.53;5038032;28;19947;-38
2021/12/14 09:46:56;;;;;;;;;;;;;;;18.26;48.23;102619.38;5036892;28;19931;-46
2021/12/14 09:49:21;;;;;;;;;;;;;;;18.28;48.16;102616.59;5037006;28;19917;-46
2021/12/14 09:51:52;;;;;;;;;;;;;;;18.29;48.10;102604.84;5033893;28;20583;-47
2021/12/14 09:54:19;;;;;;;;;;;;;;;18.30;48.06;102609.22;5030968;28;19941;-46
2021/12/14 09:56:48;;;;;;;;;;;;;;;18.31;48.05;102611.81;5038298;28;19913;-42
2021/12/14 09:59:13;;;;;;;;;;;;;;;18.30;48.07;102612.78;5032725;28;19960;-45
2021/12/14 10:01:44;;;;;;;;;;;;;;;18.33;48.01;102606.31;5036828;28;19913;-44
2021/12/14 10:04:12;;;;;;;;;;;;;;;18.34;47.99;102608.88;5035208;28;19947;-50
2021/12/14 10:06:37;;;;;;;;;;;;;;;18.35;47.98;102609.72;5036304;28;19959;-50
2021/12/14 10:09:07;;;;;;;;;;;;;;;18.36;47.92;102611.44;5034760;28;21013;-50
2021/12/14 10:12:48;;;;;;;;;;;;;;;18.36;47.88;102616.84;5036155;28;19960;-51
2021/12/14 10:14:28;;;;;;;;;;;;;;;18.37;48.24;102608.63;5029102;28;19968;-47
2021/12/14 10:16:54;;;;;;;;;;;;;;;18.40;47.93;102618.31;5033589;28;19929;-48
2021/12/14 10:19:20;;;;;;;;;;;;;;;18.41;47.86;102614.63;5038846;28;20761;-47
2021/12/14 10:21:50;;;;;;;;;;;;;;;18.42;47.80;102622.56;5036808;28;19967;-42
2021/12/14 10:24:15;;;;;;;;;;;;;;;18.44;48.01;102623.31;5036221;28;19913;-47
2021/12/14 10:26:43;;;;;;;;;;;;;;;18.45;47.89;102619.63;5036229;28;20475;-47
2021/12/14 10:29:09;;;;;;;;;;;;;;;18.47;47.88;102619.50;5039314;28;19921;-47
2021/12/14 10:31:43;;;;;;;;;;;;;;;18.47;47.67;102620.34;5041770;28;19977;-45
2021/12/14 10:34:10;;;;;;;;;;;;;;;18.48;47.71;102627.47;5039870;28;19921;-44
2021/12/14 10:36:41;;;;;;;;;;;;;;;18.47;47.89;102612.28;5036247;28;19919;-47
2021/12/14 10:44:23;;;;;;;;;;;;;;;18.47;47.68;102620.34;5041846;28;19928;-49
2021/12/14 10:46:49;;;;;;;;;;;;;;;18.48;47.62;102624.78;5043434;28;19921;-46
2021/12/14 10:49:15;;;;;;;;;;;;;;;18.48;47.52;102622.09;5045766;28;19913;-48
2021/12/14 10:51:41;;;;;;;;;;;;;;;18.49;47.63;102622.94;5046340;28;19924;-50
2021/12/14 10:54:09;;;;;;;;;;;;;;;18.51;47.73;102622.81;5046137;28;19917;-46
2021/12/14 10:56:36;;;;;;;;;;;;;;;18.50;47.71;102627.34;5045309;28;19917;-46
2021/12/14 10:59:03;;;;;;;;;;;;;;;18.50;47.44;102635.41;5045616;28;20561;-50
2021/12/14 11:01:31;;;;;;;;;;;;;;;18.49;47.44;102626.50;5045282;28;19920;-47
2021/12/14 11:04:01;;;;;;;;;;;;;;;18.49;47.50;102628.34;5045871;28;19924;-46
2021/12/14 11:06:29;;;;;;;;;;;;;;;18.47;47.49;102624.88;5044908;28;20588;-48
2021/12/14 11:11:39;;;;;;;;;;;;;;;18.46;47.49;102623.19;5041681;28;19921;-48
2021/12/14 11:14:06;;;;;;;;;;;;;;;18.47;47.59;102619.50;5042218;28;19925;-50
2021/12/14 11:18:08;;;;;;;;;;;;;;;18.47;47.45;102611.41;5037686;28;19953;-46
2021/12/14 11:19:31;;;;;;;;;;;;;;;18.47;47.39;102606.88;5041765;28;20464;-51
2021/12/14 11:22:11;;;;;;;;;;;;;;;18.47;47.65;102612.28;5043094;28;19937;-49
2021/12/14 11:24:36;;;;;;;;;;;;;;;18.49;47.64;102614.88;5036033;28;19921;-47
2021/12/14 11:27:10;;;;;;;;;;;;;;;18.51;47.50;102603.94;5041669;28;19917;-45
2021/12/14 11:29:35;;;;;;;;;;;;;;;18.52;47.51;102602.97;5038639;28;20429;-48
2021/12/14 11:32:02;;;;;;;;;;;;;;;18.54;47.41;102609.09;5041839;28;19917;-50
2021/12/14 11:34:35;;;;;;;;;;;;;;;18.54;47.47;102609.94;5040816;28;19921;-48
2021/12/14 11:37:03;;;;;;;;;;;;;;;18.55;47.53;102600.88;5039646;28;19917;-49
2021/12/14 11:39:31;;;;;;;;;;;;;;;18.56;47.70;102604.44;5040755;28;19972;-48
2021/12/14 11:41:57;;;;;;;;;;;;;;;18.57;47.51;102604.31;5040113;28;19913;-48
2021/12/14 11:44:23;;;;;;;;;;;;;;;18.57;47.54;102600.78;5040511;28;19928;-49
2021/12/14 11:46:53;;;;;;;;;;;;;;;18.57;47.57;102604.31;5040010;28;19925;-45
2021/12/14 11:49:18;;;;;;;;;;;;;;;18.58;47.59;102599.78;5048576;28;19920;-45
2021/12/14 11:51:44;;;;;;;;;;;;;;;18.56;47.57;102591.81;5039908;28;19917;-44
2021/12/14 11:54:09;;;;;;;;;;;;;;;18.56;47.60;102588.25;5041802;28;19917;-42
2021/12/14 11:56:34;;;;;;;;;;;;;;;18.56;47.59;102586.44;5040278;28;19936;-45
2021/12/14 11:59:01;;;;;;;;;;;;;;;18.57;48.05;102579.22;5038608;28;19950;-41
2021/12/14 12:01:32;;;;;;;;;;;;;;;18.58;47.88;102583.63;5037555;28;19981;-46
2021/12/14 12:03:59;;;;;;;;;;;;;;;18.57;47.82;102588.16;5041178;28;20486;-47
2021/12/14 12:11:52;;;;;;;;;;;;;;;18.57;47.89;102581.91;5042412;28;19924;-46
2021/12/14 12:14:22;;;;;;;;;;;;;;;18.57;47.92;102581.91;5038957;28;19988;-50
2021/12/14 12:16:48;;;;;;;;;;;;;;;18.58;47.69;102580.94;5052610;28;19925;-45
2021/12/14 12:19:15;;;;;;;;;;;;;;;18.58;47.70;102581.78;5038875;28;19916;-42
2021/12/14 12:21:41;;;;;;;;;;;;;;;18.60;47.87;102582.50;5038524;28;19921;-43
2021/12/14 12:24:26;;;;;;;;;;;;;;;18.62;47.80;102579.69;5041872;28;19924;-44
2021/12/14 12:26:51;;;;;;;;;;;;;;;18.63;47.89;102576.88;5036074;28;20014;-47
2021/12/14 12:29:17;;;;;;;;;;;;;;;18.64;48.05;102570.50;5042084;28;19921;-46
2021/12/14 12:31:46;;;;;;;;;;;;;;;18.66;48.23;102570.38;5056563;28;19914;-45
2021/12/14 12:34:12;;;;;;;;;;;;;;;18.68;48.04;102573.78;5041932;28;19999;-44
2021/12/14 12:36:38;;;;;;;;;;;;;;;18.70;48.09;102574.56;5040655;28;19913;-43
2021/12/14 12:39:15;;;;;;;;;;;;;;;18.72;48.15;102573.44;5040443;28;20022;-45
2021/12/14 12:41:46;;;;;;;;;;;;;;;18.75;48.20;102568.78;5041312;28;19917;-45
2021/12/14 12:44:14;;;;;;;;;;;;;;;18.78;47.91;102577.47;5041706;28;19917;-43
2021/12/14 12:46:42;;;;;;;;;;;;;;;18.80;48.20;102578.19;5039828;28;19917;-40
2021/12/14 12:49:10;;;;;;;;;;;;;;;18.81;48.41;102574.50;5040450;28;19913;-41
2021/12/14 12:51:41;;;;;;;;;;;;;;;18.84;48.15;102570.72;5041641;28;19917;-42
2021/12/14 12:54:25;;;;;;;;;;;;;;;18.84;48.15;102568.88;5041698;28;19944;-44
2021/12/14 12:57:08;;;;;;;;;;;;;;;18.87;48.12;102575.88;5040476;28;19993;-43
2021/12/14 12:59:40;;;;;;;;;;;;;;;18.88;48.04;102577.56;5030098;28;19977;-42
2021/12/14 13:02:19;;;;;;;;;;;;;;;18.89;48.11;102587.34;5037311;28;20492;-42
2021/12/14 13:04:46;;;;;;;;;;;;;;;18.89;48.33;102581.97;5041587;28;19913;-44
2021/12/14 13:07:12;;;;;;;;;;;;;;;18.88;48.29;102581.13;5039235;28;19921;-47
2021/12/14 13:09:56;;;;;;;;;;;;;;;18.86;48.03;102575.00;5039776;28;19928;-49
2021/12/14 13:12:44;;;;;;;;;;;;;;;18.89;48.21;102581.97;5036616;28;19917;-46
2021/12/14 13:15:28;;;;;;;;;;;;;;;18.87;48.04;102590.19;5036695;28;20012;-47
2021/12/14 13:18:11;;;;;;;;;;;;;;;18.85;48.33;102578.66;5035033;28;20720;-46
2021/12/14 13:20:36;;;;;;;;;;;;;;;18.87;48.14;102589.34;5034371;28;19956;-49
2021/12/14 13:23:02;;;;;;;;;;;;;;;18.86;48.49;102588.50;5038884;28;19924;-45
2021/12/14 13:25:38;;;;;;;;;;;;;;;18.87;48.21;102589.34;5039839;28;20281;-45
2021/12/14 13:28:03;;;;;;;;;;;;;;;18.87;48.43;102583.94;5035303;28;19920;-43